sensor_id;sensor_type;location;lat;lon;timestamp;P1;durP1;ratioP1;P2;durP2;ratioP2
12005;SDS011;6062;47.294;12.182;2022-08-19T00:01:50;2.25;;;0.90;;
12005;SDS011;6062;47.294;12.182;2022-08-19T00:04:18;2.38;;;0.60;;
12005;SDS011;6062;47.294;12.182;2022-08-19T00:06:54;1.60;;;0.80;;
12005;SDS011;6062;47.294;12.182;2022-08-19T00:09:20;1.85;;;0.70;;
12005;SDS011;6062;47.294;12.182;2022-08-19T00:11:48;3.17;;;0.75;;
12005;SDS011;6062;47.294;12.182;2022-08-19T00:14:15;2.03;;;0.60;;
12005;SDS011;6062;47.294;12.182;2022-08-19T00:16:42;1.45;;;0.70;;
12005;SDS011;6062;47.294;12.182;2022-08-19T00:19:10;1.15;;;0.70;;
12005;SDS011;6062;47.294;12.182;2022-08-19T00:21:37;1.83;;;0.57;;
12005;SDS011;6062;47.294;12.182;2022-08-19T00:24:04;2.38;;;0.85;;
12005;SDS011;6062;47.294;12.182;2022-08-19T00:26:32;1.63;;;0.70;;
12005;SDS011;6062;47.294;12.182;2022-08-19T00:28:59;2.05;;;0.60;;
12005;SDS011;6062;47.294;12.182;2022-08-19T00:31:26;2.10;;;0.60;;
12005;SDS011;6062;47.294;12.182;2022-08-19T00:33:52;2.10;;;0.70;;
12005;SDS011;6062;47.294;12.182;2022-08-19T00:36:19;1.25;;;0.70;;
12005;SDS011;6062;47.294;12.182;2022-08-19T00:38:45;2.58;;;0.70;;
12005;SDS011;6062;47.294;12.182;2022-08-19T00:41:15;1.55;;;0.57;;
12005;SDS011;6062;47.294;12.182;2022-08-19T00:43:56;1.77;;;0.60;;
12005;SDS011;6062;47.294;12.182;2022-08-19T00:46:25;0.85;;;0.73;;
12005;SDS011;6062;47.294;12.182;2022-08-19T00:48:52;1.35;;;0.85;;
12005;SDS011;6062;47.294;12.182;2022-08-19T00:51:19;0.95;;;0.70;;
12005;SDS011;6062;47.294;12.182;2022-08-19T00:53:47;1.73;;;0.70;;
12005;SDS011;6062;47.294;12.182;2022-08-19T00:56:12;1.40;;;0.77;;
12005;SDS011;6062;47.294;12.182;2022-08-19T00:58:38;1.17;;;0.80;;
12005;SDS011;6062;47.294;12.182;2022-08-19T01:01:05;1.90;;;0.88;;
12005;SDS011;6062;47.294;12.182;2022-08-19T01:03:32;1.85;;;0.68;;
12005;SDS011;6062;47.294;12.182;2022-08-19T01:05:58;1.00;;;0.60;;
12005;SDS011;6062;47.294;12.182;2022-08-19T01:08:25;1.90;;;1.10;;
12005;SDS011;6062;47.294;12.182;2022-08-19T01:10:55;2.33;;;1.00;;
12005;SDS011;6062;47.294;12.182;2022-08-19T01:13:25;1.73;;;1.02;;
12005;SDS011;6062;47.294;12.182;2022-08-19T01:15:56;3.10;;;1.02;;
12005;SDS011;6062;47.294;12.182;2022-08-19T01:18:27;1.33;;;0.93;;
12005;SDS011;6062;47.294;12.182;2022-08-19T01:20:57;3.45;;;1.05;;
12005;SDS011;6062;47.294;12.182;2022-08-19T01:23:30;1.98;;;0.90;;
12005;SDS011;6062;47.294;12.182;2022-08-19T01:26:19;1.33;;;0.95;;
12005;SDS011;6062;47.294;12.182;2022-08-19T01:28:49;1.38;;;0.75;;
12005;SDS011;6062;47.294;12.182;2022-08-19T01:31:20;2.28;;;0.88;;
12005;SDS011;6062;47.294;12.182;2022-08-19T01:33:50;1.55;;;0.80;;
12005;SDS011;6062;47.294;12.182;2022-08-19T01:36:23;3.08;;;0.98;;
12005;SDS011;6062;47.294;12.182;2022-08-19T01:38:51;2.85;;;0.80;;
12005;SDS011;6062;47.294;12.182;2022-08-19T01:41:18;2.25;;;0.70;;
12005;SDS011;6062;47.294;12.182;2022-08-19T01:43:44;4.22;;;0.80;;
12005;SDS011;6062;47.294;12.182;2022-08-19T01:46:10;0.70;;;0.70;;
12005;SDS011;6062;47.294;12.182;2022-08-19T01:48:40;1.65;;;0.80;;
12005;SDS011;6062;47.294;12.182;2022-08-19T01:51:08;0.82;;;0.60;;
12005;SDS011;6062;47.294;12.182;2022-08-19T01:53:36;1.15;;;0.80;;
12005;SDS011;6062;47.294;12.182;2022-08-19T01:56:03;1.45;;;0.90;;
12005;SDS011;6062;47.294;12.182;2022-08-19T01:58:35;1.85;;;1.20;;
12005;SDS011;6062;47.294;12.182;2022-08-19T02:01:11;1.92;;;0.80;;
12005;SDS011;6062;47.294;12.182;2022-08-19T02:03:37;1.95;;;0.98;;
12005;SDS011;6062;47.294;12.182;2022-08-19T02:06:03;2.83;;;1.13;;
12005;SDS011;6062;47.294;12.182;2022-08-19T02:08:30;1.75;;;1.30;;
12005;SDS011;6062;47.294;12.182;2022-08-19T02:11:00;1.65;;;1.13;;
12005;SDS011;6062;47.294;12.182;2022-08-19T02:13:25;1.67;;;1.20;;
12005;SDS011;6062;47.294;12.182;2022-08-19T02:15:52;2.85;;;1.50;;
12005;SDS011;6062;47.294;12.182;2022-08-19T02:18:18;2.05;;;1.30;;
12005;SDS011;6062;47.294;12.182;2022-08-19T02:20:44;2.10;;;1.40;;
12005;SDS011;6062;47.294;12.182;2022-08-19T02:23:11;2.05;;;1.58;;
12005;SDS011;6062;47.294;12.182;2022-08-19T02:25:37;3.70;;;2.15;;
12005;SDS011;6062;47.294;12.182;2022-08-19T02:28:04;3.25;;;2.53;;
12005;SDS011;6062;47.294;12.182;2022-08-19T02:30:30;3.40;;;2.47;;
12005;SDS011;6062;47.294;12.182;2022-08-19T02:32:56;2.90;;;2.17;;
12005;SDS011;6062;47.294;12.182;2022-08-19T02:35:22;2.40;;;2.20;;
12005;SDS011;6062;47.294;12.182;2022-08-19T02:37:49;2.97;;;2.40;;
12005;SDS011;6062;47.294;12.182;2022-08-19T02:40:33;4.85;;;2.20;;
12005;SDS011;6062;47.294;12.182;2022-08-19T02:43:01;2.22;;;2.03;;
12005;SDS011;6062;47.294;12.182;2022-08-19T02:45:36;3.30;;;2.28;;
12005;SDS011;6062;47.294;12.182;2022-08-19T02:48:06;2.30;;;1.90;;
12005;SDS011;6062;47.294;12.182;2022-08-19T02:50:33;2.20;;;1.90;;
12005;SDS011;6062;47.294;12.182;2022-08-19T02:53:04;4.43;;;1.73;;
12005;SDS011;6062;47.294;12.182;2022-08-19T02:55:32;2.28;;;1.42;;
12005;SDS011;6062;47.294;12.182;2022-08-19T02:57:58;2.63;;;1.33;;
12005;SDS011;6062;47.294;12.182;2022-08-19T03:00:25;3.22;;;1.50;;
12005;SDS011;6062;47.294;12.182;2022-08-19T03:02:51;2.08;;;1.40;;
12005;SDS011;6062;47.294;12.182;2022-08-19T03:05:18;1.88;;;1.50;;
12005;SDS011;6062;47.294;12.182;2022-08-19T03:07:44;2.25;;;1.23;;
12005;SDS011;6062;47.294;12.182;2022-08-19T03:10:11;2.60;;;1.55;;
12005;SDS011;6062;47.294;12.182;2022-08-19T03:12:37;1.80;;;1.40;;
12005;SDS011;6062;47.294;12.182;2022-08-19T03:15:05;2.15;;;1.48;;
12005;SDS011;6062;47.294;12.182;2022-08-19T03:17:33;3.15;;;1.60;;
12005;SDS011;6062;47.294;12.182;2022-08-19T03:19:59;3.10;;;1.70;;
12005;SDS011;6062;47.294;12.182;2022-08-19T03:22:26;3.00;;;1.88;;
12005;SDS011;6062;47.294;12.182;2022-08-19T03:24:52;3.60;;;1.60;;
12005;SDS011;6062;47.294;12.182;2022-08-19T03:27:18;1.92;;;1.70;;
12005;SDS011;6062;47.294;12.182;2022-08-19T03:29:44;4.00;;;1.98;;
12005;SDS011;6062;47.294;12.182;2022-08-19T03:32:10;2.72;;;1.80;;
12005;SDS011;6062;47.294;12.182;2022-08-19T03:34:37;2.30;;;1.67;;
12005;SDS011;6062;47.294;12.182;2022-08-19T03:37:07;2.10;;;1.60;;
12005;SDS011;6062;47.294;12.182;2022-08-19T03:39:39;3.78;;;1.90;;
12005;SDS011;6062;47.294;12.182;2022-08-19T03:42:06;5.03;;;2.10;;
12005;SDS011;6062;47.294;12.182;2022-08-19T03:44:33;3.03;;;2.17;;
12005;SDS011;6062;47.294;12.182;2022-08-19T03:47:01;4.97;;;2.15;;
12005;SDS011;6062;47.294;12.182;2022-08-19T03:49:28;3.30;;;3.00;;
12005;SDS011;6062;47.294;12.182;2022-08-19T03:51:57;6.22;;;1.90;;
12005;SDS011;6062;47.294;12.182;2022-08-19T03:54:25;3.28;;;1.90;;
12005;SDS011;6062;47.294;12.182;2022-08-19T03:56:53;3.80;;;2.45;;
12005;SDS011;6062;47.294;12.182;2022-08-19T03:59:26;5.53;;;2.50;;
12005;SDS011;6062;47.294;12.182;2022-08-19T04:01:57;4.78;;;2.58;;
12005;SDS011;6062;47.294;12.182;2022-08-19T04:04:26;2.80;;;2.40;;
12005;SDS011;6062;47.294;12.182;2022-08-19T04:06:52;3.95;;;2.80;;
12005;SDS011;6062;47.294;12.182;2022-08-19T04:09:18;4.07;;;2.67;;
12005;SDS011;6062;47.294;12.182;2022-08-19T04:11:46;3.13;;;2.63;;
12005;SDS011;6062;47.294;12.182;2022-08-19T04:14:17;5.32;;;2.90;;
12005;SDS011;6062;47.294;12.182;2022-08-19T04:16:46;3.00;;;2.47;;
12005;SDS011;6062;47.294;12.182;2022-08-19T04:19:13;4.10;;;2.65;;
12005;SDS011;6062;47.294;12.182;2022-08-19T04:21:42;4.47;;;2.80;;
12005;SDS011;6062;47.294;12.182;2022-08-19T04:24:10;4.75;;;2.60;;
12005;SDS011;6062;47.294;12.182;2022-08-19T04:26:37;3.95;;;2.80;;
12005;SDS011;6062;47.294;12.182;2022-08-19T04:29:06;8.10;;;4.00;;
12005;SDS011;6062;47.294;12.182;2022-08-19T04:31:47;4.35;;;2.97;;
12005;SDS011;6062;47.294;12.182;2022-08-19T04:34:15;4.55;;;3.20;;
12005;SDS011;6062;47.294;12.182;2022-08-19T04:36:47;5.00;;;3.20;;
12005;SDS011;6062;47.294;12.182;2022-08-19T04:39:17;3.13;;;2.83;;
12005;SDS011;6062;47.294;12.182;2022-08-19T04:41:47;4.20;;;2.80;;
12005;SDS011;6062;47.294;12.182;2022-08-19T04:44:34;3.40;;;2.80;;
12005;SDS011;6062;47.294;12.182;2022-08-19T04:47:01;2.97;;;2.67;;
12005;SDS011;6062;47.294;12.182;2022-08-19T04:49:30;3.75;;;2.28;;
12005;SDS011;6062;47.294;12.182;2022-08-19T04:51:55;3.35;;;2.78;;
12005;SDS011;6062;47.294;12.182;2022-08-19T04:54:23;4.35;;;2.53;;
12005;SDS011;6062;47.294;12.182;2022-08-19T04:56:50;3.88;;;2.22;;
12005;SDS011;6062;47.294;12.182;2022-08-19T04:59:18;4.45;;;2.85;;
12005;SDS011;6062;47.294;12.182;2022-08-19T05:01:46;3.42;;;2.80;;
12005;SDS011;6062;47.294;12.182;2022-08-19T05:04:17;3.72;;;3.03;;
12005;SDS011;6062;47.294;12.182;2022-08-19T05:06:46;4.00;;;3.13;;
12005;SDS011;6062;47.294;12.182;2022-08-19T05:09:14;4.93;;;3.08;;
12005;SDS011;6062;47.294;12.182;2022-08-19T05:11:41;4.35;;;3.30;;
12005;SDS011;6062;47.294;12.182;2022-08-19T05:14:07;3.28;;;2.97;;
12005;SDS011;6062;47.294;12.182;2022-08-19T05:16:34;39.47;;;4.80;;
12005;SDS011;6062;47.294;12.182;2022-08-19T05:19:00;32.72;;;3.95;;
12005;SDS011;6062;47.294;12.182;2022-08-19T05:21:45;156.80;;;7.45;;
12005;SDS011;6062;47.294;12.182;2022-08-19T05:24:29;5.55;;;3.40;;
12005;SDS011;6062;47.294;12.182;2022-08-19T05:26:59;4.65;;;3.30;;
12005;SDS011;6062;47.294;12.182;2022-08-19T05:29:28;68.93;;;5.40;;
12005;SDS011;6062;47.294;12.182;2022-08-19T05:31:56;112.28;;;7.28;;
12005;SDS011;6062;47.294;12.182;2022-08-19T05:34:23;252.77;;;9.15;;
12005;SDS011;6062;47.294;12.182;2022-08-19T05:36:52;66.93;;;4.10;;
12005;SDS011;6062;47.294;12.182;2022-08-19T05:39:27;256.38;;;8.05;;
12005;SDS011;6062;47.294;12.182;2022-08-19T05:41:58;372.92;;;10.70;;
12005;SDS011;6062;47.294;12.182;2022-08-19T05:44:34;469.17;;;13.27;;
12005;SDS011;6062;47.294;12.182;2022-08-19T05:47:05;203.40;;;7.25;;
12005;SDS011;6062;47.294;12.182;2022-08-19T05:49:33;91.60;;;4.03;;
12005;SDS011;6062;47.294;12.182;2022-08-19T05:52:02;9.38;;;2.83;;
12005;SDS011;6062;47.294;12.182;2022-08-19T05:54:30;3.67;;;2.38;;
12005;SDS011;6062;47.294;12.182;2022-08-19T05:56:57;18.35;;;3.33;;
12005;SDS011;6062;47.294;12.182;2022-08-19T05:59:25;3.08;;;2.75;;
12005;SDS011;6062;47.294;12.182;2022-08-19T06:01:51;3.92;;;2.50;;
12005;SDS011;6062;47.294;12.182;2022-08-19T06:04:22;2.45;;;2.13;;
12005;SDS011;6062;47.294;12.182;2022-08-19T06:06:50;4.10;;;2.40;;
12005;SDS011;6062;47.294;12.182;2022-08-19T06:09:18;5.32;;;3.00;;
12005;SDS011;6062;47.294;12.182;2022-08-19T06:11:50;2.90;;;2.30;;
12005;SDS011;6062;47.294;12.182;2022-08-19T06:14:22;2.60;;;2.38;;
12005;SDS011;6062;47.294;12.182;2022-08-19T06:16:51;3.17;;;2.58;;
12005;SDS011;6062;47.294;12.182;2022-08-19T06:19:20;3.05;;;2.42;;
12005;SDS011;6062;47.294;12.182;2022-08-19T06:21:49;3.47;;;2.25;;
12005;SDS011;6062;47.294;12.182;2022-08-19T06:24:18;4.05;;;2.70;;
12005;SDS011;6062;47.294;12.182;2022-08-19T06:26:50;3.63;;;2.60;;
12005;SDS011;6062;47.294;12.182;2022-08-19T06:29:19;4.18;;;2.83;;
12005;SDS011;6062;47.294;12.182;2022-08-19T06:31:50;4.03;;;2.63;;
12005;SDS011;6062;47.294;12.182;2022-08-19T06:34:21;2.45;;;2.20;;
12005;SDS011;6062;47.294;12.182;2022-08-19T06:36:47;3.33;;;2.45;;
12005;SDS011;6062;47.294;12.182;2022-08-19T06:39:17;4.72;;;2.25;;
12005;SDS011;6062;47.294;12.182;2022-08-19T06:41:50;3.33;;;2.42;;
12005;SDS011;6062;47.294;12.182;2022-08-19T06:44:20;3.92;;;2.13;;
12005;SDS011;6062;47.294;12.182;2022-08-19T06:46:50;2.20;;;2.00;;
12005;SDS011;6062;47.294;12.182;2022-08-19T06:49:16;2.72;;;1.80;;
12005;SDS011;6062;47.294;12.182;2022-08-19T06:51:44;3.53;;;1.80;;
12005;SDS011;6062;47.294;12.182;2022-08-19T06:54:13;2.35;;;1.65;;
12005;SDS011;6062;47.294;12.182;2022-08-19T06:56:40;4.15;;;1.90;;
12005;SDS011;6062;47.294;12.182;2022-08-19T06:59:12;3.00;;;1.55;;
12005;SDS011;6062;47.294;12.182;2022-08-19T07:01:49;3.58;;;1.90;;
12005;SDS011;6062;47.294;12.182;2022-08-19T07:04:22;2.00;;;1.83;;
12005;SDS011;6062;47.294;12.182;2022-08-19T07:06:56;2.17;;;1.83;;
12005;SDS011;6062;47.294;12.182;2022-08-19T07:09:42;1.60;;;1.50;;
12005;SDS011;6062;47.294;12.182;2022-08-19T07:12:10;1.95;;;1.75;;
12005;SDS011;6062;47.294;12.182;2022-08-19T07:14:40;2.42;;;2.10;;
12005;SDS011;6062;47.294;12.182;2022-08-19T07:17:09;2.10;;;1.70;;
12005;SDS011;6062;47.294;12.182;2022-08-19T07:19:38;2.65;;;2.08;;
12005;SDS011;6062;47.294;12.182;2022-08-19T07:22:05;1.90;;;1.80;;
12005;SDS011;6062;47.294;12.182;2022-08-19T07:34:54;2.33;;;1.70;;
12005;SDS011;6062;47.294;12.182;2022-08-19T07:37:20;2.38;;;1.50;;
12005;SDS011;6062;47.294;12.182;2022-08-19T07:39:46;3.60;;;1.42;;
12005;SDS011;6062;47.294;12.182;2022-08-19T07:42:12;2.33;;;1.48;;
12005;SDS011;6062;47.294;12.182;2022-08-19T07:44:39;2.40;;;1.60;;
12005;SDS011;6062;47.294;12.182;2022-08-19T07:47:06;2.45;;;1.35;;
12005;SDS011;6062;47.294;12.182;2022-08-19T07:49:32;3.17;;;1.70;;
12005;SDS011;6062;47.294;12.182;2022-08-19T07:52:00;2.00;;;1.63;;
12005;SDS011;6062;47.294;12.182;2022-08-19T07:54:32;2.35;;;1.70;;
12005;SDS011;6062;47.294;12.182;2022-08-19T07:57:02;3.13;;;2.08;;
12005;SDS011;6062;47.294;12.182;2022-08-19T07:59:29;3.95;;;2.10;;
12005;SDS011;6062;47.294;12.182;2022-08-19T08:01:56;2.08;;;1.70;;
12005;SDS011;6062;47.294;12.182;2022-08-19T08:04:25;2.13;;;1.67;;
12005;SDS011;6062;47.294;12.182;2022-08-19T08:07:10;5.00;;;1.60;;
12005;SDS011;6062;47.294;12.182;2022-08-19T08:09:55;2.58;;;1.65;;
12005;SDS011;6062;47.294;12.182;2022-08-19T08:12:26;2.38;;;1.50;;
12005;SDS011;6062;47.294;12.182;2022-08-19T08:14:59;1.65;;;1.33;;
12005;SDS011;6062;47.294;12.182;2022-08-19T08:17:32;1.95;;;1.33;;
12005;SDS011;6062;47.294;12.182;2022-08-19T08:19:59;1.83;;;1.48;;
12005;SDS011;6062;47.294;12.182;2022-08-19T08:22:25;3.55;;;1.77;;
12005;SDS011;6062;47.294;12.182;2022-08-19T08:25:14;2.38;;;1.67;;
12005;SDS011;6062;47.294;12.182;2022-08-19T08:27:44;2.92;;;1.70;;
12005;SDS011;6062;47.294;12.182;2022-08-19T08:30:13;2.40;;;1.58;;
12005;SDS011;6062;47.294;12.182;2022-08-19T08:32:43;3.45;;;1.50;;
12005;SDS011;6062;47.294;12.182;2022-08-19T08:35:10;1.90;;;1.52;;
12005;SDS011;6062;47.294;12.182;2022-08-19T08:37:40;3.35;;;1.90;;
12005;SDS011;6062;47.294;12.182;2022-08-19T08:40:28;2.30;;;1.77;;
12005;SDS011;6062;47.294;12.182;2022-08-19T08:46:07;1.80;;;1.48;;
12005;SDS011;6062;47.294;12.182;2022-08-19T08:51:25;2.33;;;1.40;;
12005;SDS011;6062;47.294;12.182;2022-08-19T08:54:12;2.50;;;1.50;;
12005;SDS011;6062;47.294;12.182;2022-08-19T08:56:42;1.90;;;1.30;;
12005;SDS011;6062;47.294;12.182;2022-08-19T08:59:21;3.00;;;1.50;;
12005;SDS011;6062;47.294;12.182;2022-08-19T09:01:59;2.72;;;1.50;;
12005;SDS011;6062;47.294;12.182;2022-08-19T09:04:25;1.58;;;1.08;;
12005;SDS011;6062;47.294;12.182;2022-08-19T09:10:44;1.60;;;1.02;;
12005;SDS011;6062;47.294;12.182;2022-08-19T09:16:02;2.38;;;1.05;;
12005;SDS011;6062;47.294;12.182;2022-08-19T09:18:39;2.05;;;1.40;;
12005;SDS011;6062;47.294;12.182;2022-08-19T09:21:20;2.80;;;1.50;;
12005;SDS011;6062;47.294;12.182;2022-08-19T09:23:47;1.73;;;1.25;;
12005;SDS011;6062;47.294;12.182;2022-08-19T09:26:15;1.83;;;1.42;;
12005;SDS011;6062;47.294;12.182;2022-08-19T09:28:45;2.72;;;1.65;;
12005;SDS011;6062;47.294;12.182;2022-08-19T09:31:13;1.60;;;1.20;;
12005;SDS011;6062;47.294;12.182;2022-08-19T09:33:46;2.40;;;1.40;;
12005;SDS011;6062;47.294;12.182;2022-08-19T09:36:14;2.50;;;1.58;;
12005;SDS011;6062;47.294;12.182;2022-08-19T09:38:43;2.38;;;2.17;;
12005;SDS011;6062;47.294;12.182;2022-08-19T09:41:12;2.40;;;1.70;;
12005;SDS011;6062;47.294;12.182;2022-08-19T09:43:46;3.05;;;1.90;;
12005;SDS011;6062;47.294;12.182;2022-08-19T09:46:17;2.45;;;2.00;;
12005;SDS011;6062;47.294;12.182;2022-08-19T09:48:45;2.85;;;2.08;;
12005;SDS011;6062;47.294;12.182;2022-08-19T09:51:17;2.72;;;2.45;;
12005;SDS011;6062;47.294;12.182;2022-08-19T09:53:49;2.92;;;2.63;;
12005;SDS011;6062;47.294;12.182;2022-08-19T09:56:19;2.65;;;2.30;;
12005;SDS011;6062;47.294;12.182;2022-08-19T09:58:46;2.28;;;1.88;;
12005;SDS011;6062;47.294;12.182;2022-08-19T10:01:17;2.58;;;2.00;;
12005;SDS011;6062;47.294;12.182;2022-08-19T10:03:50;3.90;;;2.30;;
12005;SDS011;6062;47.294;12.182;2022-08-19T10:06:20;3.55;;;2.58;;
12005;SDS011;6062;47.294;12.182;2022-08-19T10:08:50;2.70;;;2.22;;
12005;SDS011;6062;47.294;12.182;2022-08-19T10:11:18;3.08;;;2.42;;
12005;SDS011;6062;47.294;12.182;2022-08-19T10:13:45;4.40;;;2.72;;
12005;SDS011;6062;47.294;12.182;2022-08-19T10:16:13;3.33;;;2.50;;
12005;SDS011;6062;47.294;12.182;2022-08-19T10:18:45;2.60;;;2.38;;
12005;SDS011;6062;47.294;12.182;2022-08-19T10:21:12;3.47;;;2.28;;
12005;SDS011;6062;47.294;12.182;2022-08-19T10:23:45;3.03;;;2.30;;
12005;SDS011;6062;47.294;12.182;2022-08-19T10:26:15;3.47;;;3.17;;
12005;SDS011;6062;47.294;12.182;2022-08-19T10:28:44;5.85;;;3.42;;
12005;SDS011;6062;47.294;12.182;2022-08-19T10:31:12;3.58;;;2.95;;
12005;SDS011;6062;47.294;12.182;2022-08-19T10:33:42;3.33;;;3.03;;
12005;SDS011;6062;47.294;12.182;2022-08-19T10:36:10;3.88;;;3.00;;
12005;SDS011;6062;47.294;12.182;2022-08-19T10:38:43;4.18;;;3.20;;
12005;SDS011;6062;47.294;12.182;2022-08-19T10:41:16;3.28;;;2.90;;
12005;SDS011;6062;47.294;12.182;2022-08-19T10:43:50;3.35;;;2.92;;
12005;SDS011;6062;47.294;12.182;2022-08-19T10:46:19;3.13;;;2.80;;
12005;SDS011;6062;47.294;12.182;2022-08-19T10:48:47;3.08;;;2.78;;
12005;SDS011;6062;47.294;12.182;2022-08-19T10:51:14;3.55;;;2.78;;
12005;SDS011;6062;47.294;12.182;2022-08-19T10:53:59;3.08;;;2.40;;
12005;SDS011;6062;47.294;12.182;2022-08-19T10:56:26;2.70;;;2.20;;
12005;SDS011;6062;47.294;12.182;2022-08-19T10:59:11;3.53;;;2.42;;
12005;SDS011;6062;47.294;12.182;2022-08-19T11:01:39;5.03;;;2.95;;
12005;SDS011;6062;47.294;12.182;2022-08-19T11:04:07;3.78;;;3.28;;
12005;SDS011;6062;47.294;12.182;2022-08-19T11:06:36;3.85;;;2.80;;
12005;SDS011;6062;47.294;12.182;2022-08-19T11:09:03;5.15;;;3.28;;
12005;SDS011;6062;47.294;12.182;2022-08-19T11:11:30;6.32;;;3.63;;
12005;SDS011;6062;47.294;12.182;2022-08-19T11:14:05;5.13;;;3.80;;
12005;SDS011;6062;47.294;12.182;2022-08-19T11:16:33;3.20;;;2.90;;
12005;SDS011;6062;47.294;12.182;2022-08-19T11:18:59;4.50;;;2.83;;
12005;SDS011;6062;47.294;12.182;2022-08-19T11:21:27;3.50;;;3.00;;
12005;SDS011;6062;47.294;12.182;2022-08-19T11:23:57;3.45;;;2.97;;
12005;SDS011;6062;47.294;12.182;2022-08-19T11:26:27;3.45;;;2.65;;
12005;SDS011;6062;47.294;12.182;2022-08-19T11:28:55;3.67;;;3.20;;
12005;SDS011;6062;47.294;12.182;2022-08-19T11:31:23;5.63;;;3.55;;
12005;SDS011;6062;47.294;12.182;2022-08-19T11:33:56;4.47;;;3.47;;
12005;SDS011;6062;47.294;12.182;2022-08-19T11:36:24;3.83;;;3.10;;
12005;SDS011;6062;47.294;12.182;2022-08-19T11:38:51;3.42;;;3.08;;
12005;SDS011;6062;47.294;12.182;2022-08-19T11:41:18;7.20;;;3.55;;
12005;SDS011;6062;47.294;12.182;2022-08-19T11:43:48;4.28;;;3.88;;
12005;SDS011;6062;47.294;12.182;2022-08-19T11:46:15;4.28;;;3.70;;
12005;SDS011;6062;47.294;12.182;2022-08-19T11:48:42;2.97;;;2.67;;
12005;SDS011;6062;47.294;12.182;2022-08-19T11:51:09;3.30;;;3.00;;
12005;SDS011;6062;47.294;12.182;2022-08-19T11:53:43;3.20;;;2.90;;
12005;SDS011;6062;47.294;12.182;2022-08-19T11:56:10;3.65;;;3.05;;
12005;SDS011;6062;47.294;12.182;2022-08-19T11:58:36;3.53;;;2.70;;
12005;SDS011;6062;47.294;12.182;2022-08-19T12:01:07;3.28;;;2.97;;
12005;SDS011;6062;47.294;12.182;2022-08-19T12:03:36;4.03;;;3.00;;
12005;SDS011;6062;47.294;12.182;2022-08-19T12:06:04;3.22;;;2.92;;
12005;SDS011;6062;47.294;12.182;2022-08-19T12:08:36;4.90;;;2.90;;
12005;SDS011;6062;47.294;12.182;2022-08-19T12:11:03;3.13;;;2.58;;
12005;SDS011;6062;47.294;12.182;2022-08-19T12:13:29;3.05;;;2.50;;
12005;SDS011;6062;47.294;12.182;2022-08-19T12:15:56;3.55;;;2.70;;
12005;SDS011;6062;47.294;12.182;2022-08-19T12:18:23;2.95;;;2.30;;
12005;SDS011;6062;47.294;12.182;2022-08-19T12:20:50;2.83;;;2.50;;
12005;SDS011;6062;47.294;12.182;2022-08-19T12:23:17;3.72;;;2.78;;
12005;SDS011;6062;47.294;12.182;2022-08-19T12:25:45;5.22;;;2.60;;
12005;SDS011;6062;47.294;12.182;2022-08-19T12:28:19;3.20;;;2.08;;
12005;SDS011;6062;47.294;12.182;2022-08-19T12:30:49;2.60;;;2.40;;
12005;SDS011;6062;47.294;12.182;2022-08-19T12:33:16;6.22;;;2.50;;
12005;SDS011;6062;47.294;12.182;2022-08-19T12:35:44;5.07;;;3.40;;
12005;SDS011;6062;47.294;12.182;2022-08-19T12:38:11;4.22;;;3.40;;
12005;SDS011;6062;47.294;12.182;2022-08-19T12:40:39;5.63;;;3.58;;
12005;SDS011;6062;47.294;12.182;2022-08-19T12:43:05;6.38;;;3.78;;
12005;SDS011;6062;47.294;12.182;2022-08-19T12:45:34;4.57;;;4.00;;
12005;SDS011;6062;47.294;12.182;2022-08-19T12:47:59;3.63;;;3.28;;
12005;SDS011;6062;47.294;12.182;2022-08-19T12:50:25;4.03;;;3.47;;
12005;SDS011;6062;47.294;12.182;2022-08-19T12:52:51;3.95;;;3.33;;
12005;SDS011;6062;47.294;12.182;2022-08-19T12:55:17;4.97;;;3.72;;
12005;SDS011;6062;47.294;12.182;2022-08-19T12:57:44;5.63;;;3.53;;
12005;SDS011;6062;47.294;12.182;2022-08-19T13:00:15;3.92;;;3.30;;
12005;SDS011;6062;47.294;12.182;2022-08-19T13:02:46;3.80;;;3.15;;
12005;SDS011;6062;47.294;12.182;2022-08-19T13:05:23;4.80;;;4.30;;
12005;SDS011;6062;47.294;12.182;2022-08-19T13:07:56;4.15;;;3.70;;
12005;SDS011;6062;47.294;12.182;2022-08-19T13:10:25;3.78;;;3.38;;
12005;SDS011;6062;47.294;12.182;2022-08-19T13:12:56;4.00;;;3.60;;
12005;SDS011;6062;47.294;12.182;2022-08-19T13:15:24;3.58;;;3.28;;
12005;SDS011;6062;47.294;12.182;2022-08-19T13:17:52;3.40;;;2.95;;
12005;SDS011;6062;47.294;12.182;2022-08-19T13:20:19;3.97;;;3.53;;
12005;SDS011;6062;47.294;12.182;2022-08-19T13:22:46;4.57;;;2.20;;
12005;SDS011;6062;47.294;12.182;2022-08-19T13:25:13;2.92;;;1.67;;
12005;SDS011;6062;47.294;12.182;2022-08-19T13:27:42;2.78;;;1.40;;
12005;SDS011;6062;47.294;12.182;2022-08-19T13:30:10;3.03;;;1.60;;
12005;SDS011;6062;47.294;12.182;2022-08-19T13:32:57;6.22;;;2.13;;
12005;SDS011;6062;47.294;12.182;2022-08-19T13:35:49;1.88;;;1.40;;
12005;SDS011;6062;47.294;12.182;2022-08-19T13:38:22;1.77;;;1.45;;
12005;SDS011;6062;47.294;12.182;2022-08-19T13:40:49;3.65;;;1.30;;
12005;SDS011;6062;47.294;12.182;2022-08-19T13:43:17;2.03;;;1.15;;
12005;SDS011;6062;47.294;12.182;2022-08-19T13:45:46;2.13;;;1.10;;
12005;SDS011;6062;47.294;12.182;2022-08-19T13:48:13;1.10;;;1.00;;
12005;SDS011;6062;47.294;12.182;2022-08-19T13:50:41;0.90;;;0.80;;
12005;SDS011;6062;47.294;12.182;2022-08-19T13:53:10;1.20;;;0.88;;
12005;SDS011;6062;47.294;12.182;2022-08-19T13:55:37;0.90;;;0.80;;
12005;SDS011;6062;47.294;12.182;2022-08-19T13:58:05;2.47;;;0.90;;
12005;SDS011;6062;47.294;12.182;2022-08-19T14:00:33;1.42;;;0.90;;
12005;SDS011;6062;47.294;12.182;2022-08-19T14:03:02;1.13;;;0.63;;
12005;SDS011;6062;47.294;12.182;2022-08-19T14:05:29;0.60;;;0.60;;
12005;SDS011;6062;47.294;12.182;2022-08-19T14:07:55;0.77;;;0.70;;
12005;SDS011;6062;47.294;12.182;2022-08-19T14:10:22;1.40;;;0.80;;
12005;SDS011;6062;47.294;12.182;2022-08-19T14:12:51;1.30;;;0.80;;
12005;SDS011;6062;47.294;12.182;2022-08-19T14:15:20;1.80;;;0.98;;
12005;SDS011;6062;47.294;12.182;2022-08-19T14:17:48;1.23;;;0.82;;
12005;SDS011;6062;47.294;12.182;2022-08-19T14:20:14;2.28;;;0.70;;
12005;SDS011;6062;47.294;12.182;2022-08-19T14:22:41;1.10;;;0.70;;
12005;SDS011;6062;47.294;12.182;2022-08-19T14:25:09;0.50;;;0.50;;
12005;SDS011;6062;47.294;12.182;2022-08-19T14:27:40;0.80;;;0.60;;
12005;SDS011;6062;47.294;12.182;2022-08-19T14:30:08;1.45;;;0.68;;
12005;SDS011;6062;47.294;12.182;2022-08-19T14:32:39;1.30;;;0.90;;
12005;SDS011;6062;47.294;12.182;2022-08-19T14:35:05;1.98;;;0.80;;
12005;SDS011;6062;47.294;12.182;2022-08-19T14:37:32;2.13;;;0.93;;
12005;SDS011;6062;47.294;12.182;2022-08-19T14:39:59;1.67;;;0.90;;
12005;SDS011;6062;47.294;12.182;2022-08-19T14:42:25;1.20;;;0.90;;
12005;SDS011;6062;47.294;12.182;2022-08-19T14:44:50;1.02;;;0.80;;
12005;SDS011;6062;47.294;12.182;2022-08-19T14:47:16;0.82;;;0.65;;
12005;SDS011;6062;47.294;12.182;2022-08-19T14:49:42;3.92;;;0.98;;
12005;SDS011;6062;47.294;12.182;2022-08-19T14:52:08;1.10;;;0.73;;
12005;SDS011;6062;47.294;12.182;2022-08-19T14:54:34;1.25;;;0.85;;
12005;SDS011;6062;47.294;12.182;2022-08-19T14:57:00;1.10;;;0.80;;
12005;SDS011;6062;47.294;12.182;2022-08-19T14:59:25;0.98;;;0.80;;
12005;SDS011;6062;47.294;12.182;2022-08-19T15:01:51;0.98;;;0.70;;
12005;SDS011;6062;47.294;12.182;2022-08-19T15:04:17;1.02;;;0.90;;
12005;SDS011;6062;47.294;12.182;2022-08-19T15:06:42;1.77;;;0.77;;
12005;SDS011;6062;47.294;12.182;2022-08-19T15:09:08;1.75;;;0.75;;
12005;SDS011;6062;47.294;12.182;2022-08-19T15:11:35;1.27;;;0.80;;
12005;SDS011;6062;47.294;12.182;2022-08-19T15:14:03;1.45;;;0.70;;
12005;SDS011;6062;47.294;12.182;2022-08-19T15:16:30;1.67;;;0.70;;
12005;SDS011;6062;47.294;12.182;2022-08-19T15:18:57;1.25;;;0.73;;
12005;SDS011;6062;47.294;12.182;2022-08-19T15:21:25;1.55;;;0.68;;
12005;SDS011;6062;47.294;12.182;2022-08-19T15:23:52;0.70;;;0.70;;